Latest Weather Observations for Troughton Island

IDD60801

Issued at 9:01 pm CST Friday 31 July 2015 (issued every 30 minutes, with the page automatically refreshed every 10 minutes)

About weather observations | Map of weather stations | Latest weather observations for NT | Other Formats
Station Details ID: 001007 Name: TROUGHTON ISLAND Lat: -13.75 Lon: 126.15 Height: 6.0 m
Data from the previous 72 hours. | See also: Recent months at Troughton Island
Date/Time
CST
Temp
°C
App
Temp
°C
Dew
Point
Rel
Hum
%
Delta-T
°C
Wind Press
QNH
hPa
Press
MSL
hPa
Rain
since 9 am
mm
Dir
 
Spd
km/h
Gust
km/h
Spd
kts
Gust
kts
31/08:32pm 24.4 25.4 21.7 85 1.8 NE 19 24 10 13 1014.8 - 0.0
31/08:02pm 24.4 24.7 21.5 84 1.9 ENE 22 26 12 14 1014.3 - 0.0
31/07:32pm 24.5 24.4 21.4 83 2.0 ENE 24 30 13 16 1013.9 - 0.0
31/07:02pm 24.6 24.2 20.9 80 2.4 NE 24 28 13 15 1013.6 - 0.0
31/06:32pm 25.1 24.5 20.6 76 2.9 NE 24 30 13 16 1013.4 - 0.0
31/06:02pm 25.7 26.0 20.7 74 3.3 NE 20 26 11 14 1013.2 - 0.0
31/05:32pm 26.2 26.3 20.3 70 3.9 NE 20 28 11 15 1013.0 - 0.0
31/05:02pm 26.5 25.8 19.6 66 4.5 NE 22 30 12 16 1013.0 - 0.0
31/04:32pm 27.2 27.3 20.3 66 4.5 ENE 20 24 11 13 1013.2 - 0.0
31/04:30pm 27.2 27.3 20.3 66 4.5 ENE 20 - 11 - - 1013.1 0.0
31/04:02pm 27.3 26.8 19.9 64 4.8 ENE 22 28 12 15 1013.3 - 0.0
31/03:32pm 27.6 27.1 19.1 59 5.5 ENE 20 26 11 14 1013.6 - 0.0
31/03:02pm 27.7 27.2 19.0 59 5.6 E 20 24 11 13 1013.9 - 0.0
31/02:32pm 28.5 28.0 18.6 55 6.4 E 19 22 10 12 1014.4 - 0.0
31/02:02pm 28.1 26.8 18.2 55 6.3 E 22 26 12 14 1014.9 - 0.0
31/01:32pm 29.6 28.7 16.8 46 8.0 E 17 24 9 13 1015.4 - 0.0
31/01:30pm 29.2 28.4 17.1 48 7.6 E 17 - 9 - - 1015.3 -
31/01:02pm 29.6 28.0 16.1 44 8.4 E 19 24 10 13 1015.7 - 0.0
31/12:32pm 29.5 28.7 18.0 50 7.3 E 19 24 10 13 1016.1 - 0.0
31/12:02pm 28.5 25.9 15.8 46 7.8 ESE 24 30 13 16 1016.3 - 0.0
31/11:32am 28.0 25.2 16.3 49 7.2 E 26 32 14 17 1016.6 - 0.0
31/11:02am 28.5 25.8 14.7 43 8.4 ESE 22 33 12 18 1016.6 - 0.0
31/10:32am 28.0 25.4 15.0 45 7.9 SE 22 28 12 15 1016.7 - 0.0
31/10:30am 28.1 25.6 15.1 45 7.9 SE 22 - 12 - - 1016.6 0.0
31/10:02am 27.1 24.4 15.5 49 7.1 SE 24 30 13 16 1016.8 - 0.0
31/09:32am 26.5 23.3 14.3 47 7.3 SE 24 28 13 15 1016.6 - 0.0
31/09:02am 25.9 23.6 15.6 53 6.3 SE 22 26 12 14 1016.4 - 0.0
31/08:32am 25.0 23.4 16.4 59 5.3 SE 20 24 11 13 1016.1 - 0.0
31/08:02am 23.8 23.0 17.1 66 4.1 SE 17 20 9 11 1015.7 - 0.0
31/07:32am 22.6 22.4 17.5 73 3.2 SE 15 19 8 10 1015.5 - 0.0
31/07:30am 22.6 22.0 17.5 73 3.2 SSE 17 15 9 8 1015.5 1015.4 -
31/07:02am 22.1 21.9 17.5 75 2.8 SSE 15 17 8 9 1015.3 - 0.0
31/06:32am 22.1 21.6 17.7 76 2.7 SSE 17 19 9 10 1015.2 - 0.0
31/06:02am 22.4 22.0 18.0 76 2.7 SE 17 19 9 10 1015.1 - 0.0
31/05:32am 22.4 22.5 18.4 78 2.5 SE 15 17 8 9 1015.1 - 0.0
31/05:02am 22.1 22.6 18.3 79 2.4 SSE 13 15 7 8 1015.2 - 0.0
31/04:32am 22.5 22.8 18.7 79 2.4 SSE 15 17 8 9 1015.2 - 0.0
31/04:30am 22.5 22.7 18.5 78 2.5 SSE 15 - 8 - - 1015.1 0.0
31/04:02am 22.5 22.6 18.3 77 2.6 SE 15 17 8 9 1015.3 - 0.0
31/03:32am 22.2 22.4 18.6 80 2.3 SSE 15 17 8 9 1015.4 - 0.0
31/03:02am 22.2 22.8 18.6 80 2.3 SSE 13 15 7 8 1015.7 - 0.0
31/02:32am 22.5 23.4 19.3 82 2.0 SSE 13 17 7 9 1016.0 - 0.0
31/02:02am 23.3 24.6 19.2 78 2.6 ESE 11 15 6 8 1016.1 - 0.0
31/01:32am 23.8 24.9 19.7 78 2.6 ESE 13 17 7 9 1016.4 - 0.0
31/01:30am 24.0 24.8 19.9 78 2.6 ESE 15 15 8 8 1016.4 1016.3 -
31/01:02am 23.9 23.9 19.8 78 2.6 E 19 20 10 11 1016.6 - 0.0
31/12:32am 24.1 25.6 21.2 84 1.9 E 15 19 8 10 1016.6 - 0.0
31/12:02am 24.3 26.0 21.6 85 1.8 ESE 15 17 8 9 1016.7 - 0.0
 
Date/Time
CST
Temp
°C
App
Temp
°C
Dew
Point
Rel
Hum
%
Delta-T
°C
Wind Press
QNH
hPa
Press
MSL
hPa
Rain
since 9 am
mm
Dir
 
Spd
km/h
Gust
km/h
Spd
kts
Gust
kts
30/11:32pm 24.3 25.9 21.4 84 1.9 E 15 17 8 9 1016.7 - 0.0
30/11:02pm 24.7 25.8 21.2 81 2.3 ENE 17 19 9 10 1016.7 - 0.0
30/10:32pm 24.8 25.2 20.9 79 2.6 ENE 20 24 11 13 1016.5 - 0.0
30/10:30pm 24.9 25.3 21.0 79 2.6 ENE 20 - 11 - - 1016.4 0.0
30/10:02pm 25.2 25.1 20.7 76 2.9 ENE 22 26 12 14 1016.4 - 0.0
30/09:32pm 25.5 24.1 19.6 70 3.8 ENE 26 32 14 17 1016.2 - 0.0
30/09:02pm 25.5 23.5 19.2 68 4.0 NE 28 35 15 19 1016.0 - 0.0
30/08:32pm 25.6 22.8 19.0 67 4.2 ENE 32 39 17 21 1015.6 - 0.0
30/08:02pm 25.5 22.6 19.2 68 4.0 ENE 33 39 18 21 1015.1 - 0.0
30/07:02pm 25.5 23.2 19.4 69 3.9 NE 30 37 16 20 1014.8 - 0.0
30/06:32pm 25.7 23.4 19.3 67 4.1 NE 30 37 16 20 1014.7 - 0.0
30/06:02pm 26.0 23.7 19.4 67 4.3 NE 30 35 16 19 1014.7 - 0.0
30/05:32pm 26.5 24.6 19.4 65 4.6 NE 28 35 15 19 1014.5 - 0.0
30/05:02pm 27.0 25.4 19.1 62 5.1 NE 26 33 14 18 1014.5 - 0.0
30/04:32pm 27.2 25.3 18.5 59 5.6 NE 26 33 14 18 1014.5 - 0.0
30/04:02pm 27.8 25.0 18.2 56 6.1 NE 30 37 16 20 1014.6 - 0.0
30/03:32pm 28.4 26.1 18.5 55 6.3 ENE 28 35 15 19 1015.0 - 0.0
30/03:02pm 28.4 26.5 18.5 55 6.3 ENE 26 32 14 17 1015.4 - 0.0
30/02:32pm 28.9 27.2 18.1 52 6.9 ENE 24 30 13 16 1016.0 - 0.0
30/02:02pm 28.7 27.8 18.2 53 6.7 E 20 28 11 15 1016.4 - 0.0
30/01:32pm 29.7 29.1 18.5 51 7.2 E 19 22 10 12 1016.8 - 0.0
30/01:30pm 29.2 28.7 18.6 52 6.8 E 19 - 10 - - 1016.7 -
30/01:02pm 29.3 28.4 17.8 50 7.3 ESE 19 24 10 13 1017.3 - 0.0
30/12:32pm 28.4 26.7 17.3 51 7.0 ESE 22 26 12 14 1017.7 - 0.0
30/12:02pm 29.1 26.2 17.0 48 7.6 ESE 28 35 15 19 1017.9 - 0.0
30/11:32am 27.9 24.0 15.5 46 7.6 ESE 30 37 16 20 1018.2 - 0.0
30/11:02am 27.6 23.9 14.9 45 7.7 ESE 28 35 15 19 1018.4 - 0.0
30/10:32am 27.5 22.6 13.8 43 8.1 ESE 32 39 17 21 1018.4 - 0.0
30/10:30am 28.0 23.5 15.0 45 7.9 ESE 32 - 17 - - 1018.3 0.0
30/10:02am 27.1 22.8 13.1 42 8.2 ESE 28 33 15 18 1018.4 - 0.0
30/09:32am 26.5 23.1 13.6 45 7.6 SE 24 28 13 15 1018.3 - 0.0
30/09:02am 26.0 22.2 12.5 43 7.8 SE 24 28 13 15 1017.9 - 0.0
30/08:32am 25.4 23.1 14.2 50 6.6 SE 19 22 10 12 1017.5 - 0.0
30/08:02am 24.2 22.6 15.1 56 5.4 SE 17 20 9 11 1017.3 - 0.0
30/07:32am 23.0 21.6 15.6 63 4.4 SE 17 20 9 11 1017.0 - 0.0
30/07:30am 23.0 21.7 15.8 64 4.3 SE 17 - 9 - - 1016.9 -
30/07:02am 23.0 21.6 15.6 63 4.4 SE 17 20 9 11 1016.7 - 0.0
30/06:32am 23.2 21.7 15.3 61 4.7 SE 17 20 9 11 1016.5 - 0.0
30/06:02am 22.5 21.2 14.9 62 4.5 SE 15 19 8 10 1016.4 - 0.0
30/05:32am 22.0 21.5 15.8 68 3.7 SE 13 15 7 8 1016.4 - 0.0
30/05:02am 22.3 21.7 15.6 66 4.0 SE 13 15 7 8 1016.4 - 0.0
30/04:32am 22.1 22.1 17.2 74 3.0 SE 13 15 7 8 1016.4 - 0.0
30/04:30am 22.1 22.1 17.2 74 3.0 SE 13 - 7 - - 1016.3 0.0
30/04:02am 22.2 22.7 18.4 79 2.4 SSE 13 15 7 8 1016.5 - 0.0
30/03:32am 22.7 22.6 17.8 74 3.0 SE 15 17 8 9 1016.7 - 0.0
30/03:02am 22.7 22.5 17.6 73 3.2 SE 15 17 8 9 1016.8 - 0.0
30/02:32am 23.8 23.8 18.0 70 3.6 ESE 15 17 8 9 1017.0 - 0.0
30/02:02am 24.3 23.3 16.6 62 4.7 ESE 17 20 9 11 1017.1 - 0.0
30/01:32am 24.3 24.3 18.2 68 3.8 ESE 15 19 8 10 1017.4 - 0.0
30/01:30am 24.3 24.5 18.5 70 3.7 ESE 15 - 8 - - 1017.3 -
30/01:02am 24.7 24.5 18.4 68 4.0 E 17 19 9 10 1017.5 - 0.0
30/12:32am 24.7 23.8 18.2 67 4.1 E 20 22 11 12 1017.6 - 0.0
30/12:02am 24.9 24.0 18.1 66 4.3 E 20 26 11 14 1017.5 - 0.0
 
Date/Time
CST
Temp
°C
App
Temp
°C
Dew
Point
Rel
Hum
%
Delta-T
°C
Wind Press
QNH
hPa
Press
MSL
hPa
Rain
since 9 am
mm
Dir
 
Spd
km/h
Gust
km/h
Spd
kts
Gust
kts
29/11:32pm 25.2 24.4 18.4 66 4.3 E 20 26 11 14 1017.6 - 0.0
29/11:02pm 24.9 24.3 19.7 73 3.4 ENE 22 26 12 14 1017.6 - 0.0
29/10:32pm 24.8 23.8 19.6 73 3.3 ENE 24 32 13 17 1017.5 - 0.0
29/10:30pm 24.9 23.9 19.7 73 3.3 ENE 24 - 13 - - 1017.4 0.0
29/10:02pm 24.9 23.4 19.5 72 3.5 ENE 26 30 14 16 1017.3 - 0.0
29/09:32pm 25.0 24.0 19.6 72 3.5 ENE 24 28 13 15 1017.1 - 0.0
29/09:02pm 25.1 23.4 19.0 69 3.9 ENE 26 32 14 17 1017.0 - 0.0
29/08:32pm 25.1 22.7 18.3 66 4.3 ENE 28 33 15 18 1016.7 - 0.0
29/08:02pm 25.1 22.4 18.5 67 4.2 ENE 30 35 16 19 1016.4 - 0.0
29/07:32pm 25.3 22.5 18.2 64 4.5 ENE 30 37 16 20 1016.1 - 0.0
29/07:02pm 25.2 22.5 18.4 66 4.3 ENE 30 41 16 22 1015.8 - 0.0
29/06:32pm 25.6 22.8 18.3 64 4.6 ENE 30 39 16 21 1015.6 - 0.0
29/06:02pm 26.0 23.6 18.2 62 4.9 ENE 28 35 15 19 1015.6 - 0.0
29/05:02pm 26.9 24.0 17.9 57 5.7 ENE 30 35 16 19 1015.6 - 0.0
29/04:32pm 27.2 24.6 17.9 56 5.9 ENE 28 35 15 19 1015.7 - 0.0
29/04:30pm 27.1 24.5 17.8 56 5.9 ENE 28 - 15 - - 1015.6 0.0
29/04:02pm 27.5 23.7 17.1 53 6.5 ENE 33 39 18 21 1015.8 - 0.0
29/03:32pm 27.5 23.6 16.5 51 6.8 ENE 32 39 17 21 1016.1 - 0.0
29/03:02pm 27.4 24.6 17.3 54 6.3 ENE 28 35 15 19 1016.5 - 0.0
29/02:32pm 27.7 24.4 16.0 49 7.2 ENE 28 35 15 19 1017.0 - 0.0
29/02:02pm 28.1 27.6 17.0 51 6.9 E 15 19 8 10 1017.4 - 0.0
29/01:32pm 28.5 26.8 15.8 46 7.8 E 19 22 10 12 1017.7 - 0.0
29/01:30pm 28.3 26.7 15.9 47 7.6 E 19 - 10 - - 1017.7 -
29/01:02pm 28.9 25.9 13.6 39 9.1 ESE 22 28 12 15 1018.1 - 0.0
29/12:32pm 28.8 25.0 13.5 39 9.1 ESE 26 33 14 18 1018.6 - 0.0
29/12:02pm 27.9 23.2 13.1 40 8.7 ESE 30 37 16 20 1019.0 - 0.0
29/11:32am 27.5 21.8 13.1 41 8.5 ESE 35 41 19 22 1019.3 - 0.0
29/11:02am 27.0 20.1 11.5 38 8.9 ESE 39 46 21 25 1019.6 - 0.0
29/10:32am 26.7 20.9 12.7 42 8.1 ESE 35 43 19 23 1019.6 - 0.0
29/10:30am 27.0 21.5 13.7 44 7.9 ESE 35 - 19 - - 1019.5 0.0
29/10:02am 26.5 19.5 11.4 39 8.6 ESE 39 46 21 25 1019.6 - 0.0
29/09:32am 26.0 18.9 12.1 42 8.0 ESE 41 50 22 27 1019.5 - 0.0
29/09:02am 25.6 19.1 12.8 45 7.4 ESE 39 46 21 25 1019.1 - 0.0
29/08:32am 25.1 18.0 13.3 48 6.9 ESE 43 52 23 28 1018.7 - 0.0
29/08:02am 24.7 18.0 12.3 46 7.1 ESE 39 48 21 26 1018.3 - 0.0
29/07:32am 24.5 17.4 12.1 46 7.1 ESE 41 48 22 26 1017.9 - 0.0
29/07:30am 24.5 17.5 12.5 47 6.9 ESE 41 - 22 - - 1017.8 -
29/07:02am 24.5 18.5 13.4 50 6.5 ESE 37 46 20 25 1017.5 - 0.0
29/06:32am 24.6 18.7 12.5 46 6.9 ESE 35 43 19 23 1017.3 - 0.0
29/06:02am 24.7 19.2 13.6 50 6.5 ESE 35 43 19 23 1017.1 - 0.0
29/05:32am 24.8 19.9 15.4 56 5.7 ESE 35 44 19 24 1016.9 - 0.0
29/05:02am 24.8 20.4 15.7 57 5.5 ESE 33 39 18 21 1017.0 - 0.0
29/04:32am 24.8 21.5 16.0 58 5.4 ESE 28 35 15 19 1016.8 - 0.0
29/04:30am 24.8 21.6 16.2 58 5.2 ESE 28 - 15 - - 1016.7 0.0
29/04:02am 24.7 21.5 16.2 59 5.2 ESE 28 32 15 17 1016.9 - 0.0
29/03:32am 24.8 21.9 16.0 58 5.4 SE 26 30 14 16 1017.2 - 0.0
29/03:02am 24.8 22.2 16.8 61 4.9 ESE 26 32 14 17 1017.5 - 0.0
29/02:32am 24.7 22.2 17.2 63 4.7 ESE 26 30 14 16 1017.7 - 0.0
29/02:02am 24.6 23.1 18.5 69 3.9 ESE 24 30 13 16 1017.9 - 0.0
29/01:32am 24.8 23.2 17.5 64 4.6 ESE 22 30 12 16 1018.1 - 0.0
29/01:30am 24.8 23.3 17.8 65 4.4 ESE 22 - 12 - - 1018.0 -
29/01:02am 24.8 24.1 18.7 69 3.9 ESE 20 24 11 13 1018.2 - 0.0
29/12:32am 24.8 24.4 19.0 70 3.7 E 19 24 10 13 1018.3 - 0.0
29/12:02am 25.0 24.7 19.1 70 3.8 E 19 24 10 13 1018.4 - 0.0
 
Date/Time
CST
Temp
°C
App
Temp
°C
Dew
Point
Rel
Hum
%
Delta-T
°C
Wind Press
QNH
hPa
Press
MSL
hPa
Rain
since 9 am
mm
Dir
 
Spd
km/h
Gust
km/h
Spd
kts
Gust
kts
28/11:32pm 25.1 24.3 19.2 70 3.8 E 22 28 12 15 1018.5 - 0.0
28/11:02pm 25.2 24.3 19.8 72 3.5 E 24 30 13 16 1018.5 - 0.0
28/10:32pm 25.0 23.7 19.8 73 3.4 ENE 26 30 14 16 1018.5 - 0.0

Other Formats:

Comma delimited format used in spreadsheet applications
http://www.bom.gov.au/fwo/IDD60801/IDD60801.94102.axf

JavaScript Object Notation format (JSON) in row-major order
http://www.bom.gov.au/fwo/IDD60801/IDD60801.94102.json